East Charleston, Pennsylvania
Current Conditions -  °F | °C
As of 8:15 AM on Thursday 27 Nov 2014 (Local Time) from KN38 Reporting Station
NA  
Wind Chill: -9°   Ceiling: NA
Heat Index: -4°   Visibility: 10mi
Dew Point: -6°   Wind: 9mph
Humidity: 86%   Direction: 350°N
Pressure: 29.98"   Gusts: NA
Location:  41.8345°N, 77.0538°W
Report Text: KN38 271315Z AUTO 35008KT 10SM M04/M06 A2998 RMK AO2
Loading
Personal Weather Stations






























Interactive Weather Map New forecast layout! Learn more

10-Day Weather Forecast

Advertisements
Track Severe Weather on mobile